sensor_id;sensor_type;location;lat;lon;timestamp;temperature;humidity
14884;DHT22;7534;50.762;7.000;2023-07-16T00:01:52;21.20;98.20
14884;DHT22;7534;50.762;7.000;2023-07-16T00:04:18;21.10;98.20
14884;DHT22;7534;50.762;7.000;2023-07-16T00:06:43;21.00;98.40
14884;DHT22;7534;50.762;7.000;2023-07-16T00:09:09;21.00;98.40
14884;DHT22;7534;50.762;7.000;2023-07-16T00:11:35;20.90;98.80
14884;DHT22;7534;50.762;7.000;2023-07-16T00:14:00;20.80;98.80
14884;DHT22;7534;50.762;7.000;2023-07-16T00:16:27;20.70;98.90
14884;DHT22;7534;50.762;7.000;2023-07-16T00:18:53;20.60;99.10
14884;DHT22;7534;50.762;7.000;2023-07-16T00:21:19;20.40;99.30
14884;DHT22;7534;50.762;7.000;2023-07-16T00:23:44;20.50;99.50
14884;DHT22;7534;50.762;7.000;2023-07-16T00:26:10;20.40;99.40
14884;DHT22;7534;50.762;7.000;2023-07-16T00:28:36;20.30;99.60
14884;DHT22;7534;50.762;7.000;2023-07-16T00:31:01;20.30;99.50
14884;DHT22;7534;50.762;7.000;2023-07-16T00:33:28;20.30;99.60
14884;DHT22;7534;50.762;7.000;2023-07-16T00:35:54;20.30;99.80
14884;DHT22;7534;50.762;7.000;2023-07-16T00:38:20;20.20;99.90
14884;DHT22;7534;50.762;7.000;2023-07-16T00:40:46;20.20;99.90
14884;DHT22;7534;50.762;7.000;2023-07-16T00:43:12;20.00;99.90
14884;DHT22;7534;50.762;7.000;2023-07-16T00:45:40;19.90;99.90
14884;DHT22;7534;50.762;7.000;2023-07-16T00:48:06;19.80;99.90
14884;DHT22;7534;50.762;7.000;2023-07-16T00:50:34;19.90;99.90
14884;DHT22;7534;50.762;7.000;2023-07-16T00:53:06;19.80;99.90
14884;DHT22;7534;50.762;7.000;2023-07-16T00:55:35;19.80;99.90
14884;DHT22;7534;50.762;7.000;2023-07-16T00:58:04;19.80;99.90
14884;DHT22;7534;50.762;7.000;2023-07-16T01:00:34;19.60;99.90
14884;DHT22;7534;50.762;7.000;2023-07-16T01:03:06;19.60;99.90
14884;DHT22;7534;50.762;7.000;2023-07-16T01:05:50;19.60;99.90
14884;DHT22;7534;50.762;7.000;2023-07-16T01:08:44;19.60;99.90
14884;DHT22;7534;50.762;7.000;2023-07-16T01:11:14;19.50;99.90
14884;DHT22;7534;50.762;7.000;2023-07-16T01:13:40;19.60;99.90
14884;DHT22;7534;50.762;7.000;2023-07-16T01:16:21;19.60;99.90
14884;DHT22;7534;50.762;7.000;2023-07-16T01:18:47;19.50;99.90
14884;DHT22;7534;50.762;7.000;2023-07-16T01:21:15;19.30;99.90
14884;DHT22;7534;50.762;7.000;2023-07-16T01:30:02;19.30;99.90
14884;DHT22;7534;50.762;7.000;2023-07-16T01:32:34;19.20;99.90
14884;DHT22;7534;50.762;7.000;2023-07-16T01:35:03;19.10;99.90
14884;DHT22;7534;50.762;7.000;2023-07-16T01:37:31;19.10;99.90
14884;DHT22;7534;50.762;7.000;2023-07-16T01:39:57;19.10;99.90
14884;DHT22;7534;50.762;7.000;2023-07-16T01:42:23;19.10;99.90
14884;DHT22;7534;50.762;7.000;2023-07-16T01:44:49;19.00;99.90
14884;DHT22;7534;50.762;7.000;2023-07-16T01:50:26;18.90;99.90
14884;DHT22;7534;50.762;7.000;2023-07-16T01:52:51;18.90;99.90
14884;DHT22;7534;50.762;7.000;2023-07-16T01:55:17;19.00;99.90
14884;DHT22;7534;50.762;7.000;2023-07-16T01:57:43;19.00;99.90
14884;DHT22;7534;50.762;7.000;2023-07-16T02:00:09;19.00;99.90
14884;DHT22;7534;50.762;7.000;2023-07-16T02:02:35;18.90;99.90
14884;DHT22;7534;50.762;7.000;2023-07-16T02:05:01;18.90;99.90
14884;DHT22;7534;50.762;7.000;2023-07-16T02:07:27;18.80;99.90
14884;DHT22;7534;50.762;7.000;2023-07-16T02:09:53;18.80;99.90
14884;DHT22;7534;50.762;7.000;2023-07-16T02:12:19;18.80;99.90
14884;DHT22;7534;50.762;7.000;2023-07-16T02:14:45;18.80;99.90
14884;DHT22;7534;50.762;7.000;2023-07-16T02:17:10;18.80;99.90
14884;DHT22;7534;50.762;7.000;2023-07-16T02:19:37;18.80;99.90
14884;DHT22;7534;50.762;7.000;2023-07-16T02:22:03;18.80;99.90
14884;DHT22;7534;50.762;7.000;2023-07-16T02:24:29;18.70;99.90
14884;DHT22;7534;50.762;7.000;2023-07-16T02:26:54;18.80;99.90
14884;DHT22;7534;50.762;7.000;2023-07-16T02:29:20;18.70;99.90
14884;DHT22;7534;50.762;7.000;2023-07-16T02:31:45;18.80;99.90
14884;DHT22;7534;50.762;7.000;2023-07-16T02:34:13;18.70;99.90
14884;DHT22;7534;50.762;7.000;2023-07-16T02:36:39;18.70;99.90
14884;DHT22;7534;50.762;7.000;2023-07-16T02:39:05;18.60;99.90
14884;DHT22;7534;50.762;7.000;2023-07-16T02:41:30;18.60;99.90
14884;DHT22;7534;50.762;7.000;2023-07-16T02:44:05;18.60;99.90
14884;DHT22;7534;50.762;7.000;2023-07-16T02:46:31;18.60;99.90
14884;DHT22;7534;50.762;7.000;2023-07-16T02:48:57;18.50;99.90
14884;DHT22;7534;50.762;7.000;2023-07-16T02:51:23;18.50;99.90
14884;DHT22;7534;50.762;7.000;2023-07-16T02:53:48;18.40;99.90
14884;DHT22;7534;50.762;7.000;2023-07-16T02:56:14;18.50;99.90
14884;DHT22;7534;50.762;7.000;2023-07-16T02:58:40;18.40;99.90
14884;DHT22;7534;50.762;7.000;2023-07-16T03:01:05;18.40;99.90
14884;DHT22;7534;50.762;7.000;2023-07-16T03:03:31;18.40;99.90
14884;DHT22;7534;50.762;7.000;2023-07-16T03:05:57;18.30;99.90
14884;DHT22;7534;50.762;7.000;2023-07-16T03:08:22;18.30;99.90
14884;DHT22;7534;50.762;7.000;2023-07-16T03:10:51;18.40;99.90
14884;DHT22;7534;50.762;7.000;2023-07-16T03:13:17;18.20;99.90
14884;DHT22;7534;50.762;7.000;2023-07-16T03:15:42;18.20;99.90
14884;DHT22;7534;50.762;7.000;2023-07-16T03:18:08;18.20;99.90
14884;DHT22;7534;50.762;7.000;2023-07-16T03:20:34;18.20;99.90
14884;DHT22;7534;50.762;7.000;2023-07-16T03:22:59;18.10;99.90
14884;DHT22;7534;50.762;7.000;2023-07-16T03:25:25;18.00;99.90
14884;DHT22;7534;50.762;7.000;2023-07-16T03:27:51;18.00;99.90
14884;DHT22;7534;50.762;7.000;2023-07-16T03:30:16;18.10;99.90
14884;DHT22;7534;50.762;7.000;2023-07-16T03:32:42;18.10;99.90
14884;DHT22;7534;50.762;7.000;2023-07-16T03:35:08;18.10;99.90
14884;DHT22;7534;50.762;7.000;2023-07-16T03:37:34;18.00;99.90
14884;DHT22;7534;50.762;7.000;2023-07-16T03:40:16;18.00;99.90
14884;DHT22;7534;50.762;7.000;2023-07-16T03:42:43;18.10;99.90
14884;DHT22;7534;50.762;7.000;2023-07-16T03:45:10;18.00;99.90
14884;DHT22;7534;50.762;7.000;2023-07-16T03:47:36;18.00;99.90
14884;DHT22;7534;50.762;7.000;2023-07-16T03:50:02;18.00;99.90
14884;DHT22;7534;50.762;7.000;2023-07-16T03:52:28;17.90;99.90
14884;DHT22;7534;50.762;7.000;2023-07-16T03:54:54;18.10;99.90
14884;DHT22;7534;50.762;7.000;2023-07-16T03:57:20;18.10;99.90
14884;DHT22;7534;50.762;7.000;2023-07-16T03:59:46;18.10;99.90
14884;DHT22;7534;50.762;7.000;2023-07-16T04:02:11;18.10;99.90
14884;DHT22;7534;50.762;7.000;2023-07-16T04:04:37;18.20;99.90
14884;DHT22;7534;50.762;7.000;2023-07-16T04:07:03;18.20;99.90
14884;DHT22;7534;50.762;7.000;2023-07-16T04:09:29;18.10;99.90
14884;DHT22;7534;50.762;7.000;2023-07-16T04:11:54;18.10;99.90
14884;DHT22;7534;50.762;7.000;2023-07-16T04:14:20;18.30;99.90
14884;DHT22;7534;50.762;7.000;2023-07-16T04:16:46;18.30;99.90
14884;DHT22;7534;50.762;7.000;2023-07-16T04:19:12;18.40;99.90
14884;DHT22;7534;50.762;7.000;2023-07-16T04:21:38;18.40;99.90
14884;DHT22;7534;50.762;7.000;2023-07-16T04:24:05;18.60;99.90
14884;DHT22;7534;50.762;7.000;2023-07-16T04:26:31;18.70;99.90
14884;DHT22;7534;50.762;7.000;2023-07-16T04:28:57;18.80;99.70
14884;DHT22;7534;50.762;7.000;2023-07-16T04:31:23;18.80;99.40
14884;DHT22;7534;50.762;7.000;2023-07-16T04:33:49;18.90;99.40
14884;DHT22;7534;50.762;7.000;2023-07-16T04:36:15;19.00;99.10
14884;DHT22;7534;50.762;7.000;2023-07-16T04:38:41;19.10;98.80
14884;DHT22;7534;50.762;7.000;2023-07-16T04:41:07;19.30;98.60
14884;DHT22;7534;50.762;7.000;2023-07-16T04:43:33;19.60;97.80
14884;DHT22;7534;50.762;7.000;2023-07-16T04:45:59;19.60;97.80
14884;DHT22;7534;50.762;7.000;2023-07-16T04:48:26;20.30;97.60
14884;DHT22;7534;50.762;7.000;2023-07-16T04:50:52;21.80;95.80
14884;DHT22;7534;50.762;7.000;2023-07-16T04:53:18;23.60;92.60
14884;DHT22;7534;50.762;7.000;2023-07-16T04:55:44;25.10;89.30
14884;DHT22;7534;50.762;7.000;2023-07-16T04:58:11;25.40;85.10
14884;DHT22;7534;50.762;7.000;2023-07-16T05:00:37;25.20;84.40
14884;DHT22;7534;50.762;7.000;2023-07-16T05:03:03;24.70;85.10
14884;DHT22;7534;50.762;7.000;2023-07-16T05:05:29;24.50;86.70
14884;DHT22;7534;50.762;7.000;2023-07-16T05:07:55;24.10;86.50
14884;DHT22;7534;50.762;7.000;2023-07-16T05:10:20;23.70;87.70
14884;DHT22;7534;50.762;7.000;2023-07-16T05:12:46;23.20;88.40
14884;DHT22;7534;50.762;7.000;2023-07-16T05:15:12;23.20;90.30
14884;DHT22;7534;50.762;7.000;2023-07-16T05:17:38;23.50;89.30
14884;DHT22;7534;50.762;7.000;2023-07-16T05:20:04;23.50;88.20
14884;DHT22;7534;50.762;7.000;2023-07-16T05:22:30;23.00;88.60
14884;DHT22;7534;50.762;7.000;2023-07-16T05:24:56;22.50;90.20
14884;DHT22;7534;50.762;7.000;2023-07-16T05:27:21;22.00;90.80
14884;DHT22;7534;50.762;7.000;2023-07-16T05:29:47;22.00;91.10
14884;DHT22;7534;50.762;7.000;2023-07-16T05:32:13;22.10;91.10
14884;DHT22;7534;50.762;7.000;2023-07-16T05:34:39;22.10;90.60
14884;DHT22;7534;50.762;7.000;2023-07-16T05:37:05;21.80;91.20
14884;DHT22;7534;50.762;7.000;2023-07-16T05:39:31;21.60;91.60
14884;DHT22;7534;50.762;7.000;2023-07-16T05:41:57;21.50;91.20
14884;DHT22;7534;50.762;7.000;2023-07-16T05:44:22;21.40;91.50
14884;DHT22;7534;50.762;7.000;2023-07-16T05:46:48;21.30;90.90
14884;DHT22;7534;50.762;7.000;2023-07-16T05:49:14;21.30;91.40
14884;DHT22;7534;50.762;7.000;2023-07-16T05:51:39;21.40;91.30
14884;DHT22;7534;50.762;7.000;2023-07-16T05:54:05;21.30;91.50
14884;DHT22;7534;50.762;7.000;2023-07-16T05:56:31;21.10;90.50
14884;DHT22;7534;50.762;7.000;2023-07-16T05:58:57;21.00;90.90
14884;DHT22;7534;50.762;7.000;2023-07-16T06:01:23;21.00;91.10
14884;DHT22;7534;50.762;7.000;2023-07-16T06:03:49;21.00;91.20
14884;DHT22;7534;50.762;7.000;2023-07-16T06:06:21;20.80;90.70
14884;DHT22;7534;50.762;7.000;2023-07-16T06:08:47;20.90;90.60
14884;DHT22;7534;50.762;7.000;2023-07-16T06:11:13;20.90;91.00
14884;DHT22;7534;50.762;7.000;2023-07-16T06:13:39;21.00;90.90
14884;DHT22;7534;50.762;7.000;2023-07-16T06:16:05;21.00;90.90
14884;DHT22;7534;50.762;7.000;2023-07-16T06:18:31;21.00;90.40
14884;DHT22;7534;50.762;7.000;2023-07-16T06:20:57;21.00;90.70
14884;DHT22;7534;50.762;7.000;2023-07-16T06:23:25;20.90;90.30
14884;DHT22;7534;50.762;7.000;2023-07-16T06:25:55;21.00;90.70
14884;DHT22;7534;50.762;7.000;2023-07-16T06:28:21;21.10;90.40
14884;DHT22;7534;50.762;7.000;2023-07-16T06:30:47;21.10;89.80
14884;DHT22;7534;50.762;7.000;2023-07-16T06:33:12;21.20;90.10
14884;DHT22;7534;50.762;7.000;2023-07-16T06:35:39;21.30;89.30
14884;DHT22;7534;50.762;7.000;2023-07-16T06:38:05;21.40;89.90
14884;DHT22;7534;50.762;7.000;2023-07-16T06:40:30;21.50;89.20
14884;DHT22;7534;50.762;7.000;2023-07-16T06:42:56;21.70;88.50
14884;DHT22;7534;50.762;7.000;2023-07-16T06:45:22;21.50;86.50
14884;DHT22;7534;50.762;7.000;2023-07-16T06:47:48;21.50;86.50
14884;DHT22;7534;50.762;7.000;2023-07-16T06:50:14;21.50;85.30
14884;DHT22;7534;50.762;7.000;2023-07-16T06:52:40;21.50;86.50
14884;DHT22;7534;50.762;7.000;2023-07-16T06:55:06;21.60;85.40
14884;DHT22;7534;50.762;7.000;2023-07-16T06:57:31;22.20;84.30
14884;DHT22;7534;50.762;7.000;2023-07-16T06:59:57;22.70;82.50
14884;DHT22;7534;50.762;7.000;2023-07-16T07:02:23;24.60;79.00
14884;DHT22;7534;50.762;7.000;2023-07-16T07:04:50;27.20;69.50
14884;DHT22;7534;50.762;7.000;2023-07-16T07:07:16;29.30;59.70
14884;DHT22;7534;50.762;7.000;2023-07-16T07:09:42;31.50;52.30
14884;DHT22;7534;50.762;7.000;2023-07-16T07:12:08;33.50;53.20
14884;DHT22;7534;50.762;7.000;2023-07-16T07:14:34;35.00;41.90
14884;DHT22;7534;50.762;7.000;2023-07-16T07:17:00;35.50;38.10
14884;DHT22;7534;50.762;7.000;2023-07-16T07:19:26;34.60;37.60
14884;DHT22;7534;50.762;7.000;2023-07-16T07:21:53;34.30;36.70
14884;DHT22;7534;50.762;7.000;2023-07-16T07:24:19;34.90;36.60
14884;DHT22;7534;50.762;7.000;2023-07-16T07:26:45;34.60;35.00
14884;DHT22;7534;50.762;7.000;2023-07-16T07:29:10;35.40;35.20
14884;DHT22;7534;50.762;7.000;2023-07-16T07:31:36;34.90;33.80
14884;DHT22;7534;50.762;7.000;2023-07-16T07:34:01;35.40;33.20
14884;DHT22;7534;50.762;7.000;2023-07-16T07:36:28;35.30;34.50
14884;DHT22;7534;50.762;7.000;2023-07-16T07:38:54;36.00;32.40
14884;DHT22;7534;50.762;7.000;2023-07-16T07:41:21;36.30;31.30
14884;DHT22;7534;50.762;7.000;2023-07-16T07:43:46;36.40;30.70
14884;DHT22;7534;50.762;7.000;2023-07-16T07:46:12;36.30;30.00
14884;DHT22;7534;50.762;7.000;2023-07-16T07:48:38;36.30;31.00
14884;DHT22;7534;50.762;7.000;2023-07-16T07:51:03;37.10;30.30
14884;DHT22;7534;50.762;7.000;2023-07-16T07:53:29;37.10;29.70
14884;DHT22;7534;50.762;7.000;2023-07-16T07:55:56;36.20;29.40
14884;DHT22;7534;50.762;7.000;2023-07-16T07:58:21;35.40;30.50
14884;DHT22;7534;50.762;7.000;2023-07-16T08:00:47;35.30;30.50
14884;DHT22;7534;50.762;7.000;2023-07-16T08:03:13;35.40;30.10
14884;DHT22;7534;50.762;7.000;2023-07-16T08:05:38;35.50;29.80
14884;DHT22;7534;50.762;7.000;2023-07-16T08:08:04;35.80;29.70
14884;DHT22;7534;50.762;7.000;2023-07-16T08:10:30;36.30;28.80
14884;DHT22;7534;50.762;7.000;2023-07-16T08:12:55;36.00;28.80
14884;DHT22;7534;50.762;7.000;2023-07-16T08:15:21;37.20;28.90
14884;DHT22;7534;50.762;7.000;2023-07-16T08:17:48;37.40;27.80
14884;DHT22;7534;50.762;7.000;2023-07-16T08:20:14;37.00;27.30
14884;DHT22;7534;50.762;7.000;2023-07-16T08:22:39;36.40;28.60
14884;DHT22;7534;50.762;7.000;2023-07-16T08:25:07;36.90;28.10
14884;DHT22;7534;50.762;7.000;2023-07-16T08:27:34;36.90;28.30
14884;DHT22;7534;50.762;7.000;2023-07-16T08:29:59;35.80;27.80
14884;DHT22;7534;50.762;7.000;2023-07-16T08:32:25;35.30;28.40
14884;DHT22;7534;50.762;7.000;2023-07-16T08:34:51;35.90;28.20
14884;DHT22;7534;50.762;7.000;2023-07-16T08:37:16;37.10;28.10
14884;DHT22;7534;50.762;7.000;2023-07-16T08:39:42;37.70;27.20
14884;DHT22;7534;50.762;7.000;2023-07-16T08:42:09;38.10;26.50
14884;DHT22;7534;50.762;7.000;2023-07-16T08:44:39;37.60;26.30
14884;DHT22;7534;50.762;7.000;2023-07-16T08:47:08;36.10;27.40
14884;DHT22;7534;50.762;7.000;2023-07-16T08:49:34;36.60;27.50
14884;DHT22;7534;50.762;7.000;2023-07-16T08:52:01;36.40;27.30
14884;DHT22;7534;50.762;7.000;2023-07-16T08:54:27;36.30;27.80
14884;DHT22;7534;50.762;7.000;2023-07-16T08:56:53;36.70;27.60
14884;DHT22;7534;50.762;7.000;2023-07-16T08:59:20;37.50;27.30
14884;DHT22;7534;50.762;7.000;2023-07-16T09:01:49;38.40;26.80
14884;DHT22;7534;50.762;7.000;2023-07-16T09:04:17;37.90;26.00
14884;DHT22;7534;50.762;7.000;2023-07-16T09:06:45;37.90;26.70
14884;DHT22;7534;50.762;7.000;2023-07-16T09:09:21;37.60;26.30
14884;DHT22;7534;50.762;7.000;2023-07-16T09:11:48;37.70;26.60
14884;DHT22;7534;50.762;7.000;2023-07-16T09:14:21;36.30;27.30
14884;DHT22;7534;50.762;7.000;2023-07-16T09:16:53;36.40;27.90
14884;DHT22;7534;50.762;7.000;2023-07-16T09:19:19;36.90;26.90
14884;DHT22;7534;50.762;7.000;2023-07-16T09:21:47;36.50;27.30
14884;DHT22;7534;50.762;7.000;2023-07-16T09:24:13;36.50;27.40
14884;DHT22;7534;50.762;7.000;2023-07-16T09:26:48;37.00;27.70
14884;DHT22;7534;50.762;7.000;2023-07-16T09:29:19;35.80;27.70
14884;DHT22;7534;50.762;7.000;2023-07-16T09:31:59;35.70;28.40
14884;DHT22;7534;50.762;7.000;2023-07-16T09:34:30;35.60;27.80
14884;DHT22;7534;50.762;7.000;2023-07-16T09:36:57;35.40;28.90
14884;DHT22;7534;50.762;7.000;2023-07-16T09:39:25;35.90;27.80
14884;DHT22;7534;50.762;7.000;2023-07-16T09:41:52;36.20;27.60
14884;DHT22;7534;50.762;7.000;2023-07-16T09:44:19;36.40;28.00
14884;DHT22;7534;50.762;7.000;2023-07-16T09:46:46;36.90;27.00
14884;DHT22;7534;50.762;7.000;2023-07-16T09:49:14;37.60;27.50
14884;DHT22;7534;50.762;7.000;2023-07-16T09:51:42;37.50;26.20
14884;DHT22;7534;50.762;7.000;2023-07-16T09:54:12;37.30;27.20
14884;DHT22;7534;50.762;7.000;2023-07-16T09:59:16;37.30;27.10
14884;DHT22;7534;50.762;7.000;2023-07-16T10:01:45;36.20;27.50
14884;DHT22;7534;50.762;7.000;2023-07-16T10:04:15;35.70;28.00
14884;DHT22;7534;50.762;7.000;2023-07-16T10:07:02;35.70;28.10
14884;DHT22;7534;50.762;7.000;2023-07-16T10:09:40;36.20;27.80
14884;DHT22;7534;50.762;7.000;2023-07-16T10:14:43;36.10;27.30
14884;DHT22;7534;50.762;7.000;2023-07-16T10:22:40;35.50;28.40
14884;DHT22;7534;50.762;7.000;2023-07-16T10:27:48;35.60;27.40
14884;DHT22;7534;50.762;7.000;2023-07-16T10:30:16;35.30;28.50
14884;DHT22;7534;50.762;7.000;2023-07-16T10:32:43;35.10;27.70
14884;DHT22;7534;50.762;7.000;2023-07-16T10:35:10;35.60;28.70
14884;DHT22;7534;50.762;7.000;2023-07-16T10:37:37;36.10;28.00
14884;DHT22;7534;50.762;7.000;2023-07-16T10:40:05;35.20;27.10
14884;DHT22;7534;50.762;7.000;2023-07-16T10:42:32;34.50;28.30
14884;DHT22;7534;50.762;7.000;2023-07-16T10:44:59;34.30;29.50
14884;DHT22;7534;50.762;7.000;2023-07-16T10:47:34;34.20;29.00
14884;DHT22;7534;50.762;7.000;2023-07-16T10:50:07;34.20;29.10
14884;DHT22;7534;50.762;7.000;2023-07-16T10:52:35;34.20;28.70
14884;DHT22;7534;50.762;7.000;2023-07-16T10:55:02;34.70;29.10
14884;DHT22;7534;50.762;7.000;2023-07-16T10:57:28;34.00;28.50
14884;DHT22;7534;50.762;7.000;2023-07-16T10:59:56;33.70;28.90
14884;DHT22;7534;50.762;7.000;2023-07-16T11:02:24;33.40;29.20
14884;DHT22;7534;50.762;7.000;2023-07-16T11:04:51;32.90;30.30
14884;DHT22;7534;50.762;7.000;2023-07-16T11:07:21;32.70;30.90
14884;DHT22;7534;50.762;7.000;2023-07-16T11:09:49;32.40;30.40
14884;DHT22;7534;50.762;7.000;2023-07-16T11:12:17;32.00;31.60
14884;DHT22;7534;50.762;7.000;2023-07-16T11:14:50;31.60;31.40
14884;DHT22;7534;50.762;7.000;2023-07-16T11:17:18;31.60;31.90
14884;DHT22;7534;50.762;7.000;2023-07-16T11:19:46;31.60;31.60
14884;DHT22;7534;50.762;7.000;2023-07-16T11:22:14;31.90;31.70
14884;DHT22;7534;50.762;7.000;2023-07-16T11:24:49;31.60;32.20
14884;DHT22;7534;50.762;7.000;2023-07-16T11:27:26;31.30;32.40
14884;DHT22;7534;50.762;7.000;2023-07-16T11:29:57;31.30;32.90
14884;DHT22;7534;50.762;7.000;2023-07-16T11:32:43;31.10;33.40
14884;DHT22;7534;50.762;7.000;2023-07-16T11:35:16;31.10;33.50
14884;DHT22;7534;50.762;7.000;2023-07-16T11:37:44;30.80;33.40
14884;DHT22;7534;50.762;7.000;2023-07-16T11:40:14;30.50;33.40
14884;DHT22;7534;50.762;7.000;2023-07-16T11:42:42;30.30;34.20
14884;DHT22;7534;50.762;7.000;2023-07-16T11:45:19;30.10;34.00
14884;DHT22;7534;50.762;7.000;2023-07-16T11:47:46;29.80;34.60
14884;DHT22;7534;50.762;7.000;2023-07-16T11:50:12;29.70;35.60
14884;DHT22;7534;50.762;7.000;2023-07-16T11:52:39;29.60;36.00
14884;DHT22;7534;50.762;7.000;2023-07-16T11:55:05;29.30;36.10
14884;DHT22;7534;50.762;7.000;2023-07-16T11:57:32;29.40;35.40
14884;DHT22;7534;50.762;7.000;2023-07-16T11:59:57;29.40;36.40
14884;DHT22;7534;50.762;7.000;2023-07-16T12:02:25;29.20;35.60
14884;DHT22;7534;50.762;7.000;2023-07-16T12:04:51;29.20;35.40
14884;DHT22;7534;50.762;7.000;2023-07-16T12:07:30;29.00;37.00
14884;DHT22;7534;50.762;7.000;2023-07-16T12:10:02;29.00;36.00
14884;DHT22;7534;50.762;7.000;2023-07-16T12:12:30;29.10;38.30
14884;DHT22;7534;50.762;7.000;2023-07-16T12:14:55;29.20;35.80
14884;DHT22;7534;50.762;7.000;2023-07-16T12:17:21;29.80;36.20
14884;DHT22;7534;50.762;7.000;2023-07-16T12:19:47;30.30;35.20
14884;DHT22;7534;50.762;7.000;2023-07-16T12:22:14;30.30;34.40
14884;DHT22;7534;50.762;7.000;2023-07-16T12:24:46;30.50;35.10
14884;DHT22;7534;50.762;7.000;2023-07-16T12:27:13;30.70;34.20
14884;DHT22;7534;50.762;7.000;2023-07-16T12:29:39;30.70;34.80
14884;DHT22;7534;50.762;7.000;2023-07-16T12:32:06;30.60;34.60
14884;DHT22;7534;50.762;7.000;2023-07-16T12:34:32;29.90;34.20
14884;DHT22;7534;50.762;7.000;2023-07-16T12:36:58;30.00;35.50
14884;DHT22;7534;50.762;7.000;2023-07-16T12:39:24;30.30;35.70
14884;DHT22;7534;50.762;7.000;2023-07-16T12:41:50;30.30;34.80
14884;DHT22;7534;50.762;7.000;2023-07-16T12:44:15;30.20;35.30
14884;DHT22;7534;50.762;7.000;2023-07-16T12:46:41;30.30;35.30
14884;DHT22;7534;50.762;7.000;2023-07-16T12:49:07;30.60;34.10
14884;DHT22;7534;50.762;7.000;2023-07-16T12:51:32;30.70;34.40
14884;DHT22;7534;50.762;7.000;2023-07-16T12:53:58;30.50;32.70
14884;DHT22;7534;50.762;7.000;2023-07-16T12:56:26;30.10;33.90
14884;DHT22;7534;50.762;7.000;2023-07-16T12:58:52;29.70;35.10
14884;DHT22;7534;50.762;7.000;2023-07-16T13:01:17;29.60;35.90
14884;DHT22;7534;50.762;7.000;2023-07-16T13:03:43;29.60;35.90
14884;DHT22;7534;50.762;7.000;2023-07-16T13:06:09;29.80;36.20
14884;DHT22;7534;50.762;7.000;2023-07-16T13:08:35;30.00;34.10
14884;DHT22;7534;50.762;7.000;2023-07-16T13:11:01;30.00;34.10
14884;DHT22;7534;50.762;7.000;2023-07-16T13:13:27;29.90;34.20
14884;DHT22;7534;50.762;7.000;2023-07-16T13:15:54;30.20;34.10
14884;DHT22;7534;50.762;7.000;2023-07-16T13:18:20;30.60;34.40
14884;DHT22;7534;50.762;7.000;2023-07-16T13:20:46;30.90;32.60
14884;DHT22;7534;50.762;7.000;2023-07-16T13:23:12;31.00;31.60
14884;DHT22;7534;50.762;7.000;2023-07-16T13:25:38;31.10;32.10
14884;DHT22;7534;50.762;7.000;2023-07-16T13:28:07;30.40;31.70
14884;DHT22;7534;50.762;7.000;2023-07-16T13:30:33;30.40;32.70
14884;DHT22;7534;50.762;7.000;2023-07-16T13:33:00;30.50;33.80
14884;DHT22;7534;50.762;7.000;2023-07-16T13:35:26;30.60;33.20
14884;DHT22;7534;50.762;7.000;2023-07-16T13:37:52;30.80;32.50
14884;DHT22;7534;50.762;7.000;2023-07-16T13:40:19;30.70;31.80
14884;DHT22;7534;50.762;7.000;2023-07-16T13:42:47;30.80;32.20
14884;DHT22;7534;50.762;7.000;2023-07-16T13:45:13;30.70;33.10
14884;DHT22;7534;50.762;7.000;2023-07-16T13:47:39;31.00;33.90
14884;DHT22;7534;50.762;7.000;2023-07-16T13:50:06;31.40;32.80
14884;DHT22;7534;50.762;7.000;2023-07-16T13:52:32;32.20;32.40
14884;DHT22;7534;50.762;7.000;2023-07-16T13:54:58;32.20;30.00
14884;DHT22;7534;50.762;7.000;2023-07-16T13:57:23;31.80;30.60
14884;DHT22;7534;50.762;7.000;2023-07-16T13:59:49;31.60;32.50
14884;DHT22;7534;50.762;7.000;2023-07-16T14:02:15;30.90;32.30
14884;DHT22;7534;50.762;7.000;2023-07-16T14:04:40;30.70;32.20
14884;DHT22;7534;50.762;7.000;2023-07-16T14:07:06;30.90;32.10
14884;DHT22;7534;50.762;7.000;2023-07-16T14:09:32;31.20;32.60
14884;DHT22;7534;50.762;7.000;2023-07-16T14:11:57;30.70;31.30
14884;DHT22;7534;50.762;7.000;2023-07-16T14:14:23;30.00;31.30
14884;DHT22;7534;50.762;7.000;2023-07-16T14:16:49;29.50;33.50
14884;DHT22;7534;50.762;7.000;2023-07-16T14:19:15;29.40;33.70
14884;DHT22;7534;50.762;7.000;2023-07-16T14:21:41;29.60;35.40
14884;DHT22;7534;50.762;7.000;2023-07-16T14:24:07;29.70;33.90
14884;DHT22;7534;50.762;7.000;2023-07-16T14:26:33;29.80;34.60
14884;DHT22;7534;50.762;7.000;2023-07-16T14:28:59;30.30;34.40
14884;DHT22;7534;50.762;7.000;2023-07-16T14:31:25;30.80;34.10
14884;DHT22;7534;50.762;7.000;2023-07-16T14:33:51;30.90;33.30
14884;DHT22;7534;50.762;7.000;2023-07-16T14:36:17;31.20;32.60
14884;DHT22;7534;50.762;7.000;2023-07-16T14:38:43;30.90;31.70
14884;DHT22;7534;50.762;7.000;2023-07-16T14:41:10;30.80;33.20
14884;DHT22;7534;50.762;7.000;2023-07-16T14:43:36;30.40;34.30
14884;DHT22;7534;50.762;7.000;2023-07-16T14:46:02;30.80;33.00
14884;DHT22;7534;50.762;7.000;2023-07-16T14:48:28;30.50;32.90
14884;DHT22;7534;50.762;7.000;2023-07-16T14:50:54;30.30;32.20
14884;DHT22;7534;50.762;7.000;2023-07-16T14:53:20;30.30;32.70
14884;DHT22;7534;50.762;7.000;2023-07-16T14:55:47;30.70;33.40
14884;DHT22;7534;50.762;7.000;2023-07-16T14:58:14;30.80;33.50
14884;DHT22;7534;50.762;7.000;2023-07-16T15:00:40;30.60;33.50
14884;DHT22;7534;50.762;7.000;2023-07-16T15:03:06;30.30;33.90
14884;DHT22;7534;50.762;7.000;2023-07-16T15:05:32;30.30;34.40
14884;DHT22;7534;50.762;7.000;2023-07-16T15:07:57;30.10;34.10
14884;DHT22;7534;50.762;7.000;2023-07-16T15:10:23;29.80;34.00
14884;DHT22;7534;50.762;7.000;2023-07-16T15:12:50;29.70;34.30
14884;DHT22;7534;50.762;7.000;2023-07-16T15:15:16;29.30;34.30
14884;DHT22;7534;50.762;7.000;2023-07-16T15:17:42;29.30;34.80
14884;DHT22;7534;50.762;7.000;2023-07-16T15:20:08;29.40;36.40
14884;DHT22;7534;50.762;7.000;2023-07-16T15:22:35;29.80;34.90
14884;DHT22;7534;50.762;7.000;2023-07-16T15:25:01;30.30;34.60
14884;DHT22;7534;50.762;7.000;2023-07-16T15:27:28;30.60;34.10
14884;DHT22;7534;50.762;7.000;2023-07-16T15:29:53;30.80;34.50
14884;DHT22;7534;50.762;7.000;2023-07-16T15:32:20;30.60;33.80
14884;DHT22;7534;50.762;7.000;2023-07-16T15:34:46;30.40;34.10
14884;DHT22;7534;50.762;7.000;2023-07-16T15:37:12;30.00;34.80
14884;DHT22;7534;50.762;7.000;2023-07-16T15:39:37;29.50;35.40
14884;DHT22;7534;50.762;7.000;2023-07-16T15:42:06;29.10;36.40
14884;DHT22;7534;50.762;7.000;2023-07-16T15:44:32;29.00;36.50
14884;DHT22;7534;50.762;7.000;2023-07-16T15:46:58;29.30;38.40
14884;DHT22;7534;50.762;7.000;2023-07-16T15:49:24;29.60;36.60
14884;DHT22;7534;50.762;7.000;2023-07-16T15:51:50;29.70;35.00
14884;DHT22;7534;50.762;7.000;2023-07-16T15:54:16;29.80;35.30
14884;DHT22;7534;50.762;7.000;2023-07-16T15:56:43;29.70;36.10
14884;DHT22;7534;50.762;7.000;2023-07-16T15:59:09;29.30;36.80
14884;DHT22;7534;50.762;7.000;2023-07-16T16:01:35;29.20;36.80
14884;DHT22;7534;50.762;7.000;2023-07-16T16:04:00;29.10;37.90
14884;DHT22;7534;50.762;7.000;2023-07-16T16:06:26;29.30;37.30